Flight Track Log - Related Links

Times and Time Zones

All times are in EDT time to prevent confusion due to time zone crossing. See the EJA831 flight status page for this flight to view local times or setup timezone preferences in your user account.

Time Position Orientation Groundspeed Altitude Reporting Facility
EDT Latitude Longitude Course Direction KTS MPH feet Rate Location/Type
Thu 12:38:17 PM 26.0944 -81.6289 85° East 245 282 6,900  Level Miami Center
Thu 12:39:17 PM 26.0681 -81.5400 108° East 273 314 9,900 1,550 Climbing Miami Center
Thu 12:40:17 PM 26.0456 -81.4583 107° East 278 320 10,000 50 Climbing Miami Center
Thu 12:41:17 PM 26.0192 -81.3717 109° East 288 331 10,000  Level Miami Center
Thu 12:42:00 PM 26.0235 -81.2308 85° East  Level Estimated
Thu 12:42:17 PM 25.9944 -81.2900 109° East 288 331 10,000  Level Miami Center
Thu 12:43:17 PM 25.9678 -81.2033 109° East 288 331 10,000 -50 Level Miami Center
Thu 12:44:17 PM 25.9428 -81.1286 110° East 293 337 9,900  Descending Miami Center
Thu 12:44:26 PM 25.9331 -81.1053 115° Southeast 295 339 10,000 176 Climbing Miami Center
Thu 12:44:51 PM 25.9214 -81.0725 112° Southeast 295 339 10,000 -118 Level Miami Center
Thu 12:45:17 PM 25.9161 -81.0422 101° East 293 337 9,900  Descending Miami Center
Thu 12:45:51 PM 25.8928 -80.9836 114° Southeast 296 341 10,000 -200 Climbing Miami Center
Thu 12:46:17 PM 25.8936 -80.9561 88° East 293 337 9,700 -1,258 Descending Miami Center
Thu 12:46:53 PM 25.8806 -80.8956 103° East 283 326 8,700 -1,600 Descending Miami Center
Thu 12:47:17 PM 25.8833 -80.8681 84° East 283 326 8,100 -1,574 Descending Miami Center
Thu 12:47:54 PM 25.8744 -80.8100 100° East 268 308 7,100 -1,400 Descending Miami Center
Thu 12:48:17 PM 25.8753 -80.7778 88° East 272 313 6,700 -1,475 Descending Miami Center
Thu 12:48:55 PM 25.8642 -80.7289 104° East 259 298 5,600 -1,600 Descending Miami Center
Thu 12:49:17 PM 25.8669 -80.6989 84° East 272 313 5,100 -787 Descending Miami Center
Thu 12:49:56 PM 25.8581 -80.6456 100° East 264 304 4,800 -900 Descending Miami Center
Thu 12:50:17 PM 25.8608 -80.6203 83° East 267 307 4,200 -1,770 Descending Miami Center
Thu 12:50:57 PM 25.8514 -80.5714 102° East 247 284 3,000 -1,300 Descending Miami Center
Thu 12:51:17 PM 25.8458 -80.5483 105° East 251 289 2,900  Descending Miami Center
Thu 12:51:58 PM 25.8197 -80.5058 124° Southeast 246 283 3,000  Climbing Miami Center
Thu 12:52:17 PM 25.8142 -80.4803 104° East 241 277 2,900 -1,254 Descending Miami Center
Thu 12:53:05 PM 25.8008 -80.4200 104° East 239 275 1,600 -1,400 Descending Miami Center
Thu 12:53:17 PM 25.8011 -80.4083 88° East 234 269 1,500 -492 Descending Miami Center
Thu 12:54:06 PM 25.7958 -80.3714 99° East 129 148 1,100 -500 Descending Miami Center
Thu 12:54:17 PM 25.8003 -80.3575 70° East 200 230 1,000 -590 Descending Miami Center
Thu 12:55:07 PM 25.7989 -80.3322 93° East 117 135 500 -600 Descending Miami Center
Thu 12:57:00 PM 25.7954 -80.2901 90° East  Level Estimated
Thu 01:04:00 PM 25.7954 -80.2901 90° East  Level Estimated

Login

Don't have an account? Register now (free) for customized features, flight alerts, and more!